Magnum 1 — CRLV — position and weather

sailwx.info

Track history (hours):
 
Tides and Currents Weather Stations Pressure Air Temp Water Temp Dewpoint Dewpoint Depression Visibility Wind Speed Wind Dir Waves Ship Positions

Magnum 1

Last reported at 2015-Jun-15 19:22 UTC. Time now 2015-Jul-01 04:50 UTC.
Position N 38°42' W 009°13'.
Warning: this ship's position is 15 days out of date.

Length 11 m.

Type: Sailing vessel. MMSI: 263970000.

Date/timePositionNaut miles runAvg speedWind from/ knotsBaromVisibWave heightAir tempDewpointWater temp
2015-Jun-15 19:22N 38°42' W 009°13'  
2015-Jun-10 14:03N 38°42' W 009°13'2 3.8
2015-Jun-10 13:32N 38°42' W 009°10'1 0.5
2015-Jun-10 12:31N 38°41' W 009°10'4 3.8
2015-Jun-10 11:28N 38°41' W 009°15'2 2.0
2015-Jun-10 10:16N 38°41' W 009°12'1 0.0
2015-Jun-09 21:21N 38°42' W 009°12'1 0.7
2015-Jun-09 20:32N 38°41' W 009°11'0 0.4
2015-Jun-09 19:29N 38°42' W 009°12'1 0.5
2015-Jun-09 18:22N 38°42' W 009°11'2 0.0
2015-Jun-07 15:29N 38°41' W 009°13'1 1.1
2015-Jun-07 14:33N 38°41' W 009°15'0 0.2
2015-Jun-07 13:28N 38°41' W 009°15'0 0.5
2015-Jun-07 12:33N 38°41' W 009°14'1 0.6
2015-Jun-07 11:29N 38°41' W 009°15'2 0.1
2015-Jun-06 14:28N 38°41' W 009°13'0 0.3
2015-Jun-06 13:28N 38°41' W 009°13'1 0.6
2015-Jun-06 12:33N 38°41' W 009°14'0 0.4
2015-Jun-06 11:28N 38°41' W 009°15'  
Track history (hours):
 
Tides and Currents Weather Stations Pressure Air Temp Water Temp Dewpoint Dewpoint Depression Visibility Wind Speed Wind Dir Waves Ship Positions

Magnum 1

Last reported at 2015-Jun-15 19:22 UTC. Time now 2015-Jul-01 04:50 UTC.
Position N 38°42' W 009°13'.
Warning: this ship's position is 15 days out of date.

Length 11 m.

Type: Sailing vessel. MMSI: 263970000.

Date/timePositionNaut miles runAvg speedWind from/ knotsBaromVisibWave heightAir tempDewpointWater temp
2015-Jun-15 19:22N 38°42' W 009°13'  
2015-Jun-10 14:03N 38°42' W 009°13'2 3.8
2015-Jun-10 13:32N 38°42' W 009°10'1 0.5
2015-Jun-10 12:31N 38°41' W 009°10'4 3.8
2015-Jun-10 11:28N 38°41' W 009°15'2 2.0
2015-Jun-10 10:16N 38°41' W 009°12'1 0.0
2015-Jun-09 21:21N 38°42' W 009°12'1 0.7
2015-Jun-09 20:32N 38°41' W 009°11'0 0.4
2015-Jun-09 19:29N 38°42' W 009°12'1 0.5
2015-Jun-09 18:22N 38°42' W 009°11'2 0.0
2015-Jun-07 15:29N 38°41' W 009°13'1 1.1
2015-Jun-07 14:33N 38°41' W 009°15'0 0.2
2015-Jun-07 13:28N 38°41' W 009°15'0 0.5
2015-Jun-07 12:33N 38°41' W 009°14'1 0.6
2015-Jun-07 11:29N 38°41' W 009°15'2 0.1
2015-Jun-06 14:28N 38°41' W 009°13'0 0.3
2015-Jun-06 13:28N 38°41' W 009°13'1 0.6
2015-Jun-06 12:33N 38°41' W 009°14'0 0.4
2015-Jun-06 11:28N 38°41' W 009°15'  

Dump ship's entire track history